createdAt,value
2018-08-09T00:00:48.925Z,0
2018-08-09T00:01:51.013Z,0
2018-08-09T00:02:53.115Z,0
2018-08-09T00:03:55.211Z,0
2018-08-09T00:04:57.307Z,0
2018-08-09T00:05:59.416Z,0
2018-08-09T00:07:01.795Z,0
2018-08-09T00:08:04.468Z,0
2018-08-09T00:09:06.576Z,0
2018-08-09T00:10:08.967Z,0
2018-08-09T00:11:11.060Z,0
2018-08-09T00:12:13.160Z,0
2018-08-09T00:13:15.250Z,0
2018-08-09T00:14:17.346Z,0
2018-08-09T00:15:19.454Z,0
2018-08-09T00:16:21.549Z,0
2018-08-09T00:17:23.641Z,0
2018-08-09T00:18:26.044Z,0
2018-08-09T00:19:28.434Z,0
2018-08-09T00:20:30.528Z,0
2018-08-09T00:21:32.925Z,0
2018-08-09T00:22:35.017Z,0
2018-08-09T00:23:37.424Z,0
2018-08-09T00:24:40.201Z,0
2018-08-09T00:25:42.602Z,0
2018-08-09T00:26:44.982Z,0
2018-08-09T00:27:47.088Z,0
2018-08-09T00:28:49.182Z,0
2018-08-09T00:29:51.275Z,0
2018-08-09T00:30:53.386Z,0
2018-08-09T00:31:55.861Z,0
2018-08-09T00:32:57.965Z,0
2018-08-09T00:34:00.057Z,0
2018-08-09T00:35:02.167Z,0
2018-08-09T00:36:04.548Z,0
2018-08-09T00:37:06.655Z,0
2018-08-09T00:38:08.755Z,0
2018-08-09T00:39:10.837Z,0
2018-08-09T00:40:12.941Z,0
2018-08-09T00:41:15.325Z,0
2018-08-09T00:42:17.416Z,0
2018-08-09T00:43:19.520Z,0
2018-08-09T00:44:21.613Z,0
2018-08-09T00:45:23.708Z,0
2018-08-09T00:46:25.814Z,0
2018-08-09T00:47:27.919Z,0
2018-08-09T00:48:30.389Z,0
2018-08-09T00:49:32.806Z,0
2018-08-09T00:50:34.905Z,0
2018-08-09T00:51:36.989Z,0
2018-08-09T00:52:39.092Z,0
2018-08-09T00:53:41.193Z,0
2018-08-09T00:54:43.285Z,0
2018-08-09T00:55:45.397Z,0
2018-08-09T00:56:47.801Z,0
2018-08-09T00:57:49.900Z,0
2018-08-09T00:58:51.986Z,0
2018-08-09T00:59:54.096Z,0
2018-08-09T01:00:56.578Z,0
2018-08-09T01:01:58.678Z,0
2018-08-09T01:03:00.785Z,0
2018-08-09T01:04:02.868Z,0
2018-08-09T01:05:04.976Z,0
2018-08-09T01:06:07.750Z,0
2018-08-09T01:07:09.855Z,0
2018-08-09T01:08:11.939Z,0
2018-08-09T01:09:14.041Z,0
2018-08-09T01:10:16.141Z,0
2018-08-09T01:11:18.249Z,0
2018-08-09T01:12:20.332Z,0
2018-08-09T01:13:22.444Z,0
2018-08-09T01:14:24.533Z,0
2018-08-09T01:15:26.622Z,0
2018-08-09T01:16:29.008Z,0
2018-08-09T01:17:31.115Z,0
2018-08-09T01:18:33.209Z,0
2018-08-09T01:19:35.315Z,0
2018-08-09T01:20:37.415Z,0
2018-08-09T01:21:39.499Z,0
2018-08-09T01:22:41.595Z,0
2018-08-09T01:23:43.704Z,0
2018-08-09T01:24:45.785Z,0
2018-08-09T01:25:47.889Z,0
2018-08-09T01:26:49.987Z,0
2018-08-09T01:27:52.079Z,0
2018-08-09T01:28:54.475Z,0
2018-08-09T01:29:56.569Z,0
2018-08-09T01:30:58.661Z,0
2018-08-09T01:32:00.750Z,0
2018-08-09T01:33:03.471Z,0
2018-08-09T01:34:05.560Z,0
2018-08-09T01:35:07.666Z,0
2018-08-09T01:36:10.157Z,0
2018-08-09T01:37:12.242Z,0
2018-08-09T01:38:14.641Z,0
2018-08-09T01:39:17.021Z,0
2018-08-09T01:40:19.122Z,0
2018-08-09T01:41:21.207Z,0
2018-08-09T01:42:23.602Z,0
2018-08-09T01:43:25.699Z,0
2018-08-09T01:44:28.075Z,0
2018-08-09T01:45:30.184Z,0
2018-08-09T01:46:32.277Z,0
2018-08-09T01:47:34.366Z,0
2018-08-09T01:48:36.506Z,0
2018-08-09T01:49:38.987Z,0
2018-08-09T01:50:41.383Z,0
2018-08-09T01:51:43.479Z,0
2018-08-09T01:52:45.585Z,0
2018-08-09T01:53:47.685Z,0
2018-08-09T01:54:49.769Z,0
2018-08-09T01:55:51.872Z,0
2018-08-09T01:56:54.581Z,0
2018-08-09T01:57:56.666Z,0
2018-08-09T01:58:59.163Z,0
2018-08-09T02:00:01.551Z,0
2018-08-09T02:01:04.026Z,0
2018-08-09T02:02:06.133Z,0
2018-08-09T02:03:08.615Z,0
2018-08-09T02:04:10.702Z,0
2018-08-09T02:05:12.786Z,0
2018-08-09T02:06:15.240Z,0
2018-08-09T02:07:17.281Z,0
2018-08-09T02:08:19.374Z,0
2018-08-09T02:09:21.481Z,0
2018-08-09T02:10:23.563Z,0
2018-08-09T02:11:25.665Z,0
2018-08-09T02:12:27.759Z,0
2018-08-09T02:13:29.854Z,0
2018-08-09T02:14:31.943Z,0
2018-08-09T02:15:34.042Z,0
2018-08-09T02:16:36.134Z,0
2018-08-09T02:17:38.609Z,0
2018-08-09T02:18:40.720Z,0
2018-08-09T02:19:42.805Z,0
2018-08-09T02:20:45.193Z,0
2018-08-09T02:21:47.298Z,0
2018-08-09T02:22:49.402Z,0
2018-08-09T02:23:52.072Z,0
2018-08-09T02:24:54.170Z,0
2018-08-09T02:25:56.274Z,0
2018-08-09T02:26:58.373Z,0
2018-08-09T02:28:00.772Z,0
2018-08-09T02:29:02.870Z,0
2018-08-09T02:30:04.979Z,0
2018-08-09T02:31:07.351Z,0
2018-08-09T02:32:10.062Z,0
2018-08-09T02:33:12.167Z,0
2018-08-09T02:34:14.566Z,0
2018-08-09T02:35:16.677Z,0
2018-08-09T02:36:18.770Z,0
2018-08-09T02:37:20.869Z,0
2018-08-09T02:38:24.037Z,0
2018-08-09T02:39:26.147Z,0
2018-08-09T02:40:28.624Z,0
2018-08-09T02:41:30.721Z,0
2018-08-09T02:42:32.825Z,0
2018-08-09T02:43:34.909Z,0
2018-08-09T02:44:37.016Z,0
2018-08-09T02:45:39.397Z,0
2018-08-09T02:46:41.623Z,0
2018-08-09T02:47:43.592Z,0
2018-08-09T02:48:45.986Z,0
2018-08-09T02:49:48.077Z,0
2018-08-09T02:50:50.461Z,0
2018-08-09T02:51:52.583Z,0
2018-08-09T02:52:54.956Z,0
2018-08-09T02:53:57.054Z,0
2018-08-09T02:55:00.133Z,0
2018-08-09T02:56:02.546Z,0
2018-08-09T02:57:04.633Z,0
2018-08-09T02:58:06.751Z,0
2018-08-09T02:59:08.824Z,0
2018-08-09T03:00:11.615Z,0
2018-08-09T03:01:13.723Z,0
2018-08-09T03:02:16.117Z,0
2018-08-09T03:03:18.218Z,0
2018-08-09T03:04:20.324Z,0
2018-08-09T03:05:22.415Z,4
2018-08-09T03:06:24.515Z,4
2018-08-09T03:07:26.618Z,4
2018-08-09T03:08:28.711Z,0
2018-08-09T03:09:30.821Z,4
2018-08-09T03:10:32.923Z,4
2018-08-09T03:11:35.034Z,8
2018-08-09T03:12:37.125Z,8
2018-08-09T03:13:39.236Z,8
2018-08-09T03:14:41.328Z,8
2018-08-09T03:15:43.413Z,8
2018-08-09T03:16:45.524Z,12
2018-08-09T03:17:47.914Z,12
2018-08-09T03:18:50.398Z,16
2018-08-09T03:19:52.491Z,16
2018-08-09T03:20:54.593Z,20
2018-08-09T03:21:56.981Z,24
2018-08-09T03:22:59.083Z,28
2018-08-09T03:24:01.193Z,32
2018-08-09T03:25:03.273Z,36
2018-08-09T03:26:05.775Z,44
2018-08-09T03:27:08.159Z,48
2018-08-09T03:28:10.247Z,52
2018-08-09T03:29:12.335Z,60
2018-08-09T03:30:14.438Z,64
2018-08-09T03:31:16.547Z,76
2018-08-09T03:32:19.032Z,84
2018-08-09T03:33:21.421Z,96
2018-08-09T03:34:23.503Z,108
2018-08-09T03:35:25.985Z,120
2018-08-09T03:36:28.091Z,128
2018-08-09T03:37:30.171Z,144
2018-08-09T03:38:32.274Z,160
2018-08-09T03:39:35.047Z,180
2018-08-09T03:40:37.145Z,196
2018-08-09T03:41:39.617Z,216
2018-08-09T03:42:41.715Z,236
2018-08-09T03:43:43.813Z,260
2018-08-09T03:44:45.920Z,284
2018-08-09T03:45:48.005Z,308
2018-08-09T03:46:50.106Z,332
2018-08-09T03:47:52.199Z,360
2018-08-09T03:48:54.287Z,388
2018-08-09T03:49:56.686Z,420
2018-08-09T03:50:58.768Z,456
2018-08-09T03:52:00.867Z,488
2018-08-09T03:53:03.352Z,528
2018-08-09T03:54:05.750Z,564
2018-08-09T03:55:07.836Z,592
2018-08-09T03:56:09.933Z,624
2018-08-09T03:57:12.031Z,664
2018-08-09T03:58:14.131Z,704
2018-08-09T03:59:16.580Z,752
2018-08-09T04:00:18.674Z,792
2018-08-09T04:01:20.764Z,832
2018-08-09T04:02:22.852Z,876
2018-08-09T04:03:24.960Z,924
2018-08-09T04:04:27.053Z,968
2018-08-09T04:05:29.153Z,1000
2018-08-09T04:06:31.254Z,1032
2018-08-09T04:07:33.338Z,1064
2018-08-09T04:08:35.434Z,1100
2018-08-09T04:09:37.925Z,1140
2018-08-09T04:10:40.005Z,1188
2018-08-09T04:11:42.434Z,1232
2018-08-09T04:12:44.894Z,1284
2018-08-09T04:13:46.979Z,1332
2018-08-09T04:14:49.376Z,1392
2018-08-09T04:15:51.466Z,1468
2018-08-09T04:16:53.853Z,1560
2018-08-09T04:17:56.363Z,1664
2018-08-09T04:18:58.430Z,1776
2018-08-09T04:20:00.528Z,1876
2018-08-09T04:21:02.618Z,1936
2018-08-09T04:22:05.100Z,1996
2018-08-09T04:23:07.495Z,2056
2018-08-09T04:24:09.581Z,2068
2018-08-09T04:25:11.681Z,2092
2018-08-09T04:26:13.770Z,2140
2018-08-09T04:27:15.876Z,2140
2018-08-09T04:28:17.966Z,2140
2018-08-09T04:29:20.065Z,2144
2018-08-09T04:30:22.164Z,2204
2018-08-09T04:31:24.245Z,2280
2018-08-09T04:32:26.353Z,2352
2018-08-09T04:33:28.444Z,2408
2018-08-09T04:34:30.533Z,2464
2018-08-09T04:35:32.626Z,2508
2018-08-09T04:36:34.729Z,2540
2018-08-09T04:37:37.110Z,2612
2018-08-09T04:38:39.602Z,2692
2018-08-09T04:39:42.020Z,2792
2018-08-09T04:40:44.101Z,2896
2018-08-09T04:41:46.200Z,2980
2018-08-09T04:42:48.305Z,3048
2018-08-09T04:43:50.385Z,3124
2018-08-09T04:44:52.484Z,3232
2018-08-09T04:45:54.593Z,3320
2018-08-09T04:46:56.971Z,3324
2018-08-09T04:47:59.076Z,3320
2018-08-09T04:49:01.166Z,3304
2018-08-09T04:50:03.260Z,3300
2018-08-09T04:51:05.350Z,3300
2018-08-09T04:52:07.456Z,3332
2018-08-09T04:53:09.544Z,3368
2018-08-09T04:54:11.643Z,3352
2018-08-09T04:55:14.036Z,3344
2018-08-09T04:56:16.134Z,3316
2018-08-09T04:57:18.216Z,3200
2018-08-09T04:58:20.641Z,3200
2018-08-09T04:59:23.175Z,3204
2018-08-09T05:00:25.287Z,3176
2018-08-09T05:01:27.377Z,3188
2018-08-09T05:02:29.469Z,3188
2018-08-09T05:03:31.573Z,3204
2018-08-09T05:04:33.940Z,3244
2018-08-09T05:05:36.050Z,3292
2018-08-09T05:06:38.140Z,3376
2018-08-09T05:07:40.229Z,3424
2018-08-09T05:08:42.325Z,3520
2018-08-09T05:09:44.425Z,3596
2018-08-09T05:10:46.518Z,3604
2018-08-09T05:11:48.914Z,3676
2018-08-09T05:12:51.399Z,3676
2018-08-09T05:13:53.776Z,3668
2018-08-09T05:14:56.164Z,3736
2018-08-09T05:15:58.346Z,3892
2018-08-09T05:17:00.352Z,4084
2018-08-09T05:18:03.230Z,4328
2018-08-09T05:19:05.714Z,4632
2018-08-09T05:20:07.802Z,4928
2018-08-09T05:21:09.915Z,5360
2018-08-09T05:22:12.013Z,5632
2018-08-09T05:23:14.459Z,5720
2018-08-09T05:24:16.489Z,5888
2018-08-09T05:25:18.606Z,5932
2018-08-09T05:26:20.703Z,5852
2018-08-09T05:27:22.786Z,5336
2018-08-09T05:28:24.888Z,5476
2018-08-09T05:29:27.257Z,5996
2018-08-09T05:30:29.363Z,6636
2018-08-09T05:31:31.459Z,7156
2018-08-09T05:32:33.557Z,7312
2018-08-09T05:33:35.636Z,6632
2018-08-09T05:34:37.736Z,6452
2018-08-09T05:35:39.839Z,6768
2018-08-09T05:36:42.219Z,6968
2018-08-09T05:37:44.329Z,7012
2018-08-09T05:38:47.094Z,7288
2018-08-09T05:39:49.481Z,7700
2018-08-09T05:40:51.585Z,7480
2018-08-09T05:41:53.685Z,7644
2018-08-09T05:42:55.773Z,7564
2018-08-09T05:43:58.552Z,8028
2018-08-09T05:45:00.640Z,8472
2018-08-09T05:46:02.734Z,8780
2018-08-09T05:47:04.843Z,8888
2018-08-09T05:48:06.933Z,9344
2018-08-09T05:49:09.022Z,9724
2018-08-09T05:50:11.134Z,10376
2018-08-09T05:51:13.226Z,10136
2018-08-09T05:52:15.322Z,9932
2018-08-09T05:53:17.468Z,9432
2018-08-09T05:54:19.906Z,8688
2018-08-09T05:55:22.008Z,8388
2018-08-09T05:56:24.494Z,8812
2018-08-09T05:57:26.606Z,9120
2018-08-09T05:58:28.776Z,9600
2018-08-09T05:59:31.230Z,9644
2018-08-09T06:00:33.326Z,9444
2018-08-09T06:01:35.418Z,8704
2018-08-09T06:02:37.533Z,9068
2018-08-09T06:03:39.621Z,9048
2018-08-09T06:04:41.725Z,8124
2018-08-09T06:05:43.849Z,8792
2018-08-09T06:06:46.412Z,9428
2018-08-09T06:07:48.790Z,10332
2018-08-09T06:08:50.889Z,10352
2018-08-09T06:09:52.993Z,9144
2018-08-09T06:10:55.078Z,8496
2018-08-09T06:11:57.181Z,8528
2018-08-09T06:12:59.286Z,8672
2018-08-09T06:14:01.777Z,8588
2018-08-09T06:15:03.882Z,9160
2018-08-09T06:16:06.262Z,9892
2018-08-09T06:17:08.365Z,10392
2018-08-09T06:18:10.458Z,10172
2018-08-09T06:19:12.557Z,10328
2018-08-09T06:20:14.667Z,10396
2018-08-09T06:21:16.765Z,9776
2018-08-09T06:22:18.855Z,9000
2018-08-09T06:23:21.257Z,8984
2018-08-09T06:24:23.349Z,9244
2018-08-09T06:25:25.445Z,10088
2018-08-09T06:26:27.638Z,11060
2018-08-09T06:27:30.114Z,11928
2018-08-09T06:28:32.229Z,11684
2018-08-09T06:29:34.626Z,10052
2018-08-09T06:30:36.732Z,9196
2018-08-09T06:31:38.818Z,8920
2018-08-09T06:32:40.929Z,8960
2018-08-09T06:33:43.700Z,9080
2018-08-09T06:34:45.789Z,9132
2018-08-09T06:35:47.900Z,9240
2018-08-09T06:36:49.991Z,9408
2018-08-09T06:37:52.098Z,9596
2018-08-09T06:38:54.197Z,9744
2018-08-09T06:39:56.310Z,9820
2018-08-09T06:40:58.404Z,9756
2018-08-09T06:42:00.802Z,9724
2018-08-09T06:43:03.220Z,9664
2018-08-09T06:44:05.608Z,9648
2018-08-09T06:45:07.999Z,9680
2018-08-09T06:46:10.387Z,9740
2018-08-09T06:47:12.481Z,9784
2018-08-09T06:48:14.581Z,9788
2018-08-09T06:49:16.683Z,9840
2018-08-09T06:50:18.781Z,9972
2018-08-09T06:51:20.875Z,10060
2018-08-09T06:52:23.264Z,10116
2018-08-09T06:53:25.374Z,10116
2018-08-09T06:54:27.477Z,10164
2018-08-09T06:55:29.567Z,10252
2018-08-09T06:56:31.678Z,10304
2018-08-09T06:57:33.773Z,10352
2018-08-09T06:58:36.262Z,10428
2018-08-09T06:59:38.387Z,10500
2018-08-09T07:00:40.466Z,10568
2018-08-09T07:01:42.572Z,10636
2018-08-09T07:02:44.962Z,10736
2018-08-09T07:03:47.074Z,10892
2018-08-09T07:04:49.163Z,11060
2018-08-09T07:05:51.285Z,11172
2018-08-09T07:06:53.430Z,11272
2018-08-09T07:07:55.481Z,11320
2018-08-09T07:08:57.595Z,11360
2018-08-09T07:09:59.734Z,11440
2018-08-09T07:11:01.851Z,11508
2018-08-09T07:12:03.941Z,11636
2018-08-09T07:13:06.056Z,11804
2018-08-09T07:14:08.149Z,11912
2018-08-09T07:15:10.255Z,11972
2018-08-09T07:16:12.747Z,12072
2018-08-09T07:17:14.836Z,12148
2018-08-09T07:18:17.268Z,12236
2018-08-09T07:19:19.662Z,12340
2018-08-09T07:20:22.188Z,12452
2018-08-09T07:21:24.237Z,12588
2018-08-09T07:22:26.632Z,12752
2018-08-09T07:23:29.412Z,12808
2018-08-09T07:24:31.523Z,12820
2018-08-09T07:25:33.629Z,12768
2018-08-09T07:26:35.722Z,12680
2018-08-09T07:27:37.827Z,12672
2018-08-09T07:28:39.927Z,12640
2018-08-09T07:29:42.039Z,12708
2018-08-09T07:30:44.136Z,12800
2018-08-09T07:31:46.235Z,12896
2018-08-09T07:32:48.746Z,12976
2018-08-09T07:33:50.858Z,13076
2018-08-09T07:34:53.440Z,13156
2018-08-09T07:35:55.547Z,13196
2018-08-09T07:36:57.952Z,13244
2018-08-09T07:38:00.041Z,13336
2018-08-09T07:39:02.164Z,13436
2018-08-09T07:40:04.661Z,13520
2018-08-09T07:41:06.753Z,13644
2018-08-09T07:42:08.869Z,13768
2018-08-09T07:43:10.961Z,13908
2018-08-09T07:44:13.068Z,14016
2018-08-09T07:45:15.184Z,14132
2018-08-09T07:46:17.300Z,14216
2018-08-09T07:47:19.396Z,14268
2018-08-09T07:48:21.850Z,14312
2018-08-09T07:49:23.908Z,14408
2018-08-09T07:50:26.302Z,14444
2018-08-09T07:51:28.711Z,14544
2018-08-09T07:52:30.813Z,14652
2018-08-09T07:53:32.904Z,14748
2018-08-09T07:54:35.010Z,14888
2018-08-09T07:55:37.397Z,15012
2018-08-09T07:56:39.502Z,15136
2018-08-09T07:57:41.607Z,15248
2018-08-09T07:58:44.100Z,15332
2018-08-09T07:59:46.193Z,15440
2018-08-09T08:00:48.337Z,15524
2018-08-09T08:01:50.414Z,15592
2018-08-09T08:02:52.512Z,15672
2018-08-09T08:03:54.618Z,15780
2018-08-09T08:04:57.114Z,15960
2018-08-09T08:05:59.220Z,16216
2018-08-09T08:07:01.332Z,16492
2018-08-09T08:08:03.431Z,16784
2018-08-09T08:09:05.541Z,17040
2018-08-09T08:10:07.640Z,17240
2018-08-09T08:11:09.755Z,17372
2018-08-09T08:12:11.858Z,17436
2018-08-09T08:13:13.964Z,17556
2018-08-09T08:14:16.075Z,17632
2018-08-09T08:15:18.467Z,17764
2018-08-09T08:16:20.582Z,18312
2018-08-09T08:17:22.685Z,26752
2018-08-09T08:18:24.795Z,44000
2018-08-09T08:19:26.889Z,51008
2018-08-09T08:20:29.004Z,49728
2018-08-09T08:21:31.395Z,43840
2018-08-09T08:22:33.494Z,34272
2018-08-09T08:23:36.312Z,26080
2018-08-09T08:24:38.407Z,21856
2018-08-09T08:25:40.513Z,21728
2018-08-09T08:26:42.686Z,22368
2018-08-09T08:27:44.739Z,26016
2018-08-09T08:28:46.835Z,33632
2018-08-09T08:29:48.941Z,49920
2018-08-09T08:30:51.041Z,61952
2018-08-09T08:31:53.143Z,62016
2018-08-09T08:32:55.256Z,59904
2018-08-09T08:33:57.358Z,59360
2018-08-09T08:34:59.460Z,56384
2018-08-09T08:36:02.284Z,59744
2018-08-09T08:37:04.385Z,59968
2018-08-09T08:38:06.495Z,56768
2018-08-09T08:39:08.604Z,57216
2018-08-09T08:40:10.696Z,52064
2018-08-09T08:41:12.809Z,54624
2018-08-09T08:42:15.229Z,57312
2018-08-09T08:43:17.352Z,57344
2018-08-09T08:44:19.451Z,56192
2018-08-09T08:45:21.832Z,56608
2018-08-09T08:46:24.335Z,61472
2018-08-09T08:47:26.519Z,61824
2018-08-09T08:48:28.585Z,61696
2018-08-09T08:49:30.659Z,62272
2018-08-09T08:50:32.766Z,63808
2018-08-09T08:51:34.878Z,67520
2018-08-09T08:52:36.975Z,70496
2018-08-09T08:53:39.092Z,72160
2018-08-09T08:54:41.197Z,68640
2018-08-09T08:55:43.339Z,71648
2018-08-09T08:56:45.421Z,78144
2018-08-09T08:57:47.522Z,74784
2018-08-09T08:58:49.627Z,71008
2018-08-09T08:59:51.743Z,73152
2018-08-09T09:00:53.902Z,73792
2018-08-09T09:01:56.305Z,72736
2018-08-09T09:02:58.413Z,74080
2018-08-09T09:04:00.509Z,75616
2018-08-09T09:05:03.247Z,78048
2018-08-09T09:06:05.715Z,75520
2018-08-09T09:07:07.891Z,74336
2018-08-09T09:08:09.919Z,70464
2018-08-09T09:09:12.049Z,66336
2018-08-09T09:10:14.150Z,68768
2018-08-09T09:11:16.257Z,70944
2018-08-09T09:12:18.370Z,73280
2018-08-09T09:13:20.468Z,71264
2018-08-09T09:14:22.579Z,71456
2018-08-09T09:15:24.697Z,74016
2018-08-09T09:16:27.109Z,72704
2018-08-09T09:17:29.204Z,75296
2018-08-09T09:18:31.319Z,79552
2018-08-09T09:19:33.427Z,81952
2018-08-09T09:20:35.530Z,80000
2018-08-09T09:21:37.640Z,78080
2018-08-09T09:22:40.159Z,81120
2018-08-09T09:23:42.564Z,78304
2018-08-09T09:24:44.679Z,77632
2018-08-09T09:25:47.351Z,86144
2018-08-09T09:26:49.469Z,90976
2018-08-09T09:27:51.873Z,91296
2018-08-09T09:28:53.975Z,96672
2018-08-09T09:29:56.099Z,98432
2018-08-09T09:30:58.201Z,92576
2018-08-09T09:32:00.315Z,88288
2018-08-09T09:33:02.431Z,87392
2018-08-09T09:34:04.551Z,92480
2018-08-09T09:35:06.664Z,94464
2018-08-09T09:36:08.764Z,88448
2018-08-09T09:37:10.868Z,85056
2018-08-09T09:38:12.979Z,88576
2018-08-09T09:39:15.104Z,88160
2018-08-09T09:40:17.216Z,81696
2018-08-09T09:41:19.335Z,80224
2018-08-09T09:42:21.762Z,82048
2018-08-09T09:43:23.876Z,85056
2018-08-09T09:44:25.988Z,88736
2018-08-09T09:45:28.110Z,91744
2018-08-09T09:46:30.210Z,93184
2018-08-09T09:47:32.330Z,93600
2018-08-09T09:48:34.726Z,95136
2018-08-09T09:49:36.895Z,101344
2018-08-09T09:50:39.365Z,102496
2018-08-09T09:51:41.798Z,100992
2018-08-09T09:52:43.909Z,99360
2018-08-09T09:53:46.322Z,100480
2018-08-09T09:54:48.490Z,104288
2018-08-09T09:55:50.995Z,102336
2018-08-09T09:56:53.381Z,100960
2018-08-09T09:57:56.173Z,93984
2018-08-09T09:58:58.613Z,86400
2018-08-09T10:00:00.727Z,90496
2018-08-09T10:01:02.840Z,89056
2018-08-09T10:02:05.348Z,81216
2018-08-09T10:03:07.470Z,84576
2018-08-09T10:04:09.577Z,88480
2018-08-09T10:05:11.692Z,94080
2018-08-09T10:06:13.818Z,97536
2018-08-09T10:07:16.067Z,93728
2018-08-09T10:08:18.043Z,92736
2018-08-09T10:09:20.162Z,98944
2018-08-09T10:10:22.319Z,102176
2018-08-09T10:11:24.813Z,94336
2018-08-09T10:12:27.228Z,92480
2018-08-09T10:13:29.338Z,91040
2018-08-09T10:14:31.449Z,90176
2018-08-09T10:15:33.575Z,93088
2018-08-09T10:16:35.685Z,95936
2018-08-09T10:17:37.799Z,95488
2018-08-09T10:18:39.923Z,92352
2018-08-09T10:19:42.034Z,90336
2018-08-09T10:20:44.149Z,90080
2018-08-09T10:21:46.263Z,93600
2018-08-09T10:22:48.388Z,95616
2018-08-09T10:23:51.169Z,94592
2018-08-09T10:24:53.980Z,95712
2018-08-09T10:25:56.094Z,97792
2018-08-09T10:26:58.201Z,95776
2018-08-09T10:28:00.338Z,98560
2018-08-09T10:29:02.451Z,100096
2018-08-09T10:30:04.958Z,97312
2018-08-09T10:31:07.070Z,91776
2018-08-09T10:32:09.200Z,91008
2018-08-09T10:33:11.309Z,93920
2018-08-09T10:34:13.721Z,93248
2018-08-09T10:35:15.842Z,97440
2018-08-09T10:36:17.948Z,104384
2018-08-09T10:37:20.465Z,106528
2018-08-09T10:38:23.163Z,101088
2018-08-09T10:39:25.272Z,100224
2018-08-09T10:40:27.391Z,105024
2018-08-09T10:41:29.561Z,101024
2018-08-09T10:42:31.928Z,95648
2018-08-09T10:43:34.058Z,96800
2018-08-09T10:44:36.178Z,98656
2018-08-09T10:45:38.679Z,99040
2018-08-09T10:46:40.803Z,95392
2018-08-09T10:47:43.220Z,95744
2018-08-09T10:48:45.714Z,97024
2018-08-09T10:49:47.836Z,96832
2018-08-09T10:50:50.249Z,95392
2018-08-09T10:51:53.034Z,99840
2018-08-09T10:52:55.163Z,105280
2018-08-09T10:53:57.275Z,99712
2018-08-09T10:54:59.394Z,93088
2018-08-09T10:56:01.509Z,91520
2018-08-09T10:57:03.645Z,91360
2018-08-09T10:58:05.751Z,91904
2018-08-09T10:59:08.163Z,91840
2018-08-09T11:00:10.599Z,95040
2018-08-09T11:01:12.707Z,96128
2018-08-09T11:02:14.832Z,93664
2018-08-09T11:03:16.952Z,95840
2018-08-09T11:04:19.074Z,95264
2018-08-09T11:05:21.180Z,92992
2018-08-09T11:06:23.329Z,93504
2018-08-09T11:07:25.445Z,91520
2018-08-09T11:08:27.557Z,89824
2018-08-09T11:09:30.375Z,91616
2018-08-09T11:10:32.770Z,96192
2018-08-09T11:11:34.890Z,98080
2018-08-09T11:12:37.018Z,97312
2018-08-09T11:13:39.146Z,99040
2018-08-09T11:14:41.259Z,98560
2018-08-09T11:15:43.379Z,97952
2018-08-09T11:16:45.508Z,100768
2018-08-09T11:17:47.630Z,104064
2018-08-09T11:18:49.734Z,107744
2018-08-09T11:19:51.854Z,109376
2018-08-09T11:20:53.985Z,105760
2018-08-09T11:21:56.090Z,100160
2018-08-09T11:22:58.216Z,99296
2018-08-09T11:24:00.335Z,100736
2018-08-09T11:25:02.448Z,103264
2018-08-09T11:26:04.580Z,102752
2018-08-09T11:27:07.087Z,102464
2018-08-09T11:28:09.207Z,103712
2018-08-09T11:29:11.328Z,105568
2018-08-09T11:30:13.467Z,105472
2018-08-09T11:31:15.871Z,105824
2018-08-09T11:32:18.308Z,106272
2018-08-09T11:33:20.434Z,107904
2018-08-09T11:34:22.542Z,112000
2018-08-09T11:35:24.672Z,118720
2018-08-09T11:36:26.787Z,123072
2018-08-09T11:37:28.907Z,103072
2018-08-09T11:38:31.011Z,77408
2018-08-09T11:39:33.429Z,57568
2018-08-09T11:40:35.550Z,67296
2018-08-09T11:41:37.687Z,62624
2018-08-09T11:42:39.822Z,38816
2018-08-09T11:43:41.930Z,35424
2018-08-09T11:44:44.056Z,35104
2018-08-09T11:45:46.191Z,35968
2018-08-09T11:46:48.321Z,36224
2018-08-09T11:47:50.819Z,36704
2018-08-09T11:48:52.959Z,37696
2018-08-09T11:49:55.083Z,38464
2018-08-09T11:50:57.199Z,40416
2018-08-09T11:51:59.326Z,39104
2018-08-09T11:53:01.441Z,39296
2018-08-09T11:54:03.589Z,58208
2018-08-09T11:55:05.712Z,59392
2018-08-09T11:56:07.891Z,72896
2018-08-09T11:57:09.984Z,39680
2018-08-09T11:58:12.615Z,33760
2018-08-09T11:59:14.746Z,31264
2018-08-09T12:00:16.864Z,30304
2018-08-09T12:01:19.277Z,29920
2018-08-09T12:02:21.392Z,30784
2018-08-09T12:03:23.536Z,31200
2018-08-09T12:04:26.040Z,30240
2018-08-09T12:05:28.448Z,28224
2018-08-09T12:06:30.869Z,27104
2018-08-09T12:07:33.015Z,27744
2018-08-09T12:08:35.828Z,29504
2018-08-09T12:09:37.946Z,30208
2018-08-09T12:10:40.396Z,30080
2018-08-09T12:11:42.497Z,30976
2018-08-09T12:12:44.618Z,36160
2018-08-09T12:13:47.042Z,57120
2018-08-09T12:14:49.489Z,46720
2018-08-09T12:15:51.888Z,48736
2018-08-09T12:16:53.996Z,45184
2018-08-09T12:17:56.116Z,76128
2018-08-09T12:18:58.243Z,100320
2018-08-09T12:20:00.364Z,115264
2018-08-09T12:21:02.767Z,117440
2018-08-09T12:22:04.898Z,115392
2018-08-09T12:23:07.004Z,106912
2018-08-09T12:24:09.124Z,101952
2018-08-09T12:25:11.570Z,104672
2018-08-09T12:26:13.984Z,105408
2018-08-09T12:27:16.093Z,24896
2018-08-09T12:28:18.229Z,23680
2018-08-09T12:29:20.346Z,23360
2018-08-09T12:30:22.511Z,27904
2018-08-09T12:31:24.592Z,34080
2018-08-09T12:32:26.719Z,89952
2018-08-09T12:33:29.218Z,83296
2018-08-09T12:34:31.630Z,44032
2018-08-09T12:35:33.739Z,109376
2018-08-09T12:36:35.876Z,107936
2018-08-09T12:37:37.982Z,111424
2018-08-09T12:38:40.103Z,111744
2018-08-09T12:39:42.229Z,101152
2018-08-09T12:40:44.335Z,99552
2018-08-09T12:41:46.760Z,76864
2018-08-09T12:42:49.194Z,96640
2018-08-09T12:43:51.317Z,97504
2018-08-09T12:44:53.430Z,92928
2018-08-09T12:45:55.554Z,92128
2018-08-09T12:46:57.669Z,94432
2018-08-09T12:47:59.781Z,30304
2018-08-09T12:49:02.225Z,32480
2018-08-09T12:50:04.623Z,27680
2018-08-09T12:51:07.131Z,28448
2018-08-09T12:52:09.544Z,31840
2018-08-09T12:53:11.664Z,90944
2018-08-09T12:54:13.779Z,66272
2018-08-09T12:55:15.901Z,29504
2018-08-09T12:56:18.009Z,24704
2018-08-09T12:57:20.409Z,27008
2018-08-09T12:58:22.531Z,35456
2018-08-09T12:59:24.645Z,61312
2018-08-09T13:00:26.757Z,86304
2018-08-09T13:01:28.886Z,88736
2018-08-09T13:02:30.996Z,47520
2018-08-09T13:03:33.112Z,46592
2018-08-09T13:04:35.237Z,49664
2018-08-09T13:05:37.342Z,71936
2018-08-09T13:06:39.461Z,33760
2018-08-09T13:07:41.580Z,31648
2018-08-09T13:08:43.993Z,32096
2018-08-09T13:09:46.098Z,95616
2018-08-09T13:10:48.219Z,102368
2018-08-09T13:11:50.331Z,101184
2018-08-09T13:12:52.439Z,99072
2018-08-09T13:13:54.572Z,97408
2018-08-09T13:14:56.681Z,49376
2018-08-09T13:15:58.801Z,89760
2018-08-09T13:17:00.971Z,54816
2018-08-09T13:18:03.446Z,49984
2018-08-09T13:19:05.946Z,32480
2018-08-09T13:20:08.064Z,31968
2018-08-09T13:21:10.190Z,68192
2018-08-09T13:22:12.294Z,28704
2018-08-09T13:23:14.418Z,28000
2018-08-09T13:24:16.528Z,30720
2018-08-09T13:25:18.635Z,30784
2018-08-09T13:26:20.751Z,29344
2018-08-09T13:27:22.875Z,43616
2018-08-09T13:28:24.986Z,82656
2018-08-09T13:29:27.118Z,83168
2018-08-09T13:30:29.237Z,85376
2018-08-09T13:31:31.731Z,74240
2018-08-09T13:32:33.843Z,84128
2018-08-09T13:33:36.037Z,86144
2018-08-09T13:34:38.076Z,83392
2018-08-09T13:35:40.195Z,84512
2018-08-09T13:36:42.314Z,86048
2018-08-09T13:37:44.425Z,85856
2018-08-09T13:38:46.846Z,87872
2018-08-09T13:39:48.956Z,91616
2018-08-09T13:40:51.068Z,93760
2018-08-09T13:41:53.173Z,88640
2018-08-09T13:42:55.309Z,89696
2018-08-09T13:43:57.420Z,93600
2018-08-09T13:44:59.541Z,89600
2018-08-09T13:46:01.669Z,73728
2018-08-09T13:47:04.078Z,38016
2018-08-09T13:48:06.183Z,23648
2018-08-09T13:49:08.301Z,20384
2018-08-09T13:50:10.726Z,21984
2018-08-09T13:51:13.142Z,33984
2018-08-09T13:52:15.252Z,40992
2018-08-09T13:53:17.373Z,83392